Time;durP1;ratioP1;P1;durP2;ratioP2;P2;SDS_P1;SDS_P2;PMS_P1;PMS_P2;Temp;Humidity;BMP_temperature;BMP_pressure;BME280_temperature;BME280_humidity;BME280_pressure;Samples;Min_cycle;Max_cycle;Signal;HPM_P1;HPM_P2
2022/08/24 00:01:21;;;;;;;49.95;6.30;;;;;;;;;;5058320;28;20208;-60
2022/08/24 00:03:49;;;;;;;48.10;6.47;;;;;;;;;;5057559;28;20261;-60
2022/08/24 00:06:22;;;;;;;58.40;6.72;;;;;;;;;;5057461;28;20648;-59
2022/08/24 00:08:50;;;;;;;58.30;6.25;;;;;;;;;;5057455;28;20211;-59
2022/08/24 00:11:18;;;;;;;44.42;6.85;;;;;;;;;;5057402;28;20637;-60
2022/08/24 00:13:45;;;;;;;62.05;6.50;;;;;;;;;;5057119;28;20287;-60
2022/08/24 00:16:13;;;;;;;44.80;6.90;;;;;;;;;;5057570;28;20283;-60
2022/08/24 00:18:42;;;;;;;49.22;6.43;;;;;;;;;;5057268;28;20232;-60
2022/08/24 00:21:09;;;;;;;47.53;6.82;;;;;;;;;;5057375;28;20204;-59
2022/08/24 00:23:36;;;;;;;42.22;6.07;;;;;;;;;;5057469;28;20208;-60
2022/08/24 00:26:04;;;;;;;37.17;5.82;;;;;;;;;;5056931;28;20565;-59
2022/08/24 00:28:31;;;;;;;37.95;5.18;;;;;;;;;;5072558;28;20504;-60
2022/08/24 00:30:59;;;;;;;46.92;6.55;;;;;;;;;;5057238;28;20200;-60
2022/08/24 00:33:27;;;;;;;46.47;6.97;;;;;;;;;;5056950;28;20219;-59
2022/08/24 00:35:54;;;;;;;43.90;5.00;;;;;;;;;;5056067;28;20200;-60
2022/08/24 00:38:21;;;;;;;48.17;5.53;;;;;;;;;;5056608;28;20700;-59
2022/08/24 00:40:53;;;;;;;41.15;5.53;;;;;;;;;;5055880;28;20200;-59
2022/08/24 00:43:22;;;;;;;45.35;6.78;;;;;;;;;;5056891;28;20243;-60
2022/08/24 00:45:52;;;;;;;46.78;6.63;;;;;;;;;;5056639;28;20702;-59
2022/08/24 00:48:27;;;;;;;43.67;6.28;;;;;;;;;;5056800;28;20243;-60
2022/08/24 00:51:03;;;;;;;42.83;6.68;;;;;;;;;;5055856;28;20207;-60
2022/08/24 00:53:40;;;;;;;44.28;6.15;;;;;;;;;;5056517;28;20214;-59
2022/08/24 00:56:14;;;;;;;45.08;6.35;;;;;;;;;;5039121;28;20184;-60
2022/08/24 00:58:53;;;;;;;43.00;6.68;;;;;;;;;;5072106;28;20238;-60
2022/08/24 01:01:24;;;;;;;38.35;5.32;;;;;;;;;;5039790;28;20199;-60
2022/08/24 01:03:51;;;;;;;33.70;6.10;;;;;;;;;;5055623;28;20212;-60
2022/08/24 01:06:23;;;;;;;30.17;5.53;;;;;;;;;;5056657;28;20227;-60
2022/08/24 01:08:50;;;;;;;38.25;6.07;;;;;;;;;;5055529;28;20258;-60
2022/08/24 01:11:26;;;;;;;37.75;5.45;;;;;;;;;;5056401;28;20219;-60
2022/08/24 01:14:01;;;;;;;44.88;6.60;;;;;;;;;;5055824;28;20196;-60
2022/08/24 01:19:26;;;;;;;47.00;6.93;;;;;;;;;;5037841;28;20625;-60
2022/08/24 01:22:11;;;;;;;39.50;5.68;;;;;;;;;;5054267;28;20187;-60
2022/08/24 01:24:39;;;;;;;47.38;6.90;;;;;;;;;;5054334;28;20629;-60
2022/08/24 01:27:08;;;;;;;33.78;5.85;;;;;;;;;;5038314;28;20222;-60
2022/08/24 01:29:37;;;;;;;45.70;5.72;;;;;;;;;;5038059;28;20210;-60
2022/08/24 01:32:04;;;;;;;49.38;6.63;;;;;;;;;;5054047;28;20195;-59
2022/08/24 01:34:32;;;;;;;53.50;6.13;;;;;;;;;;5054537;28;20200;-60
2022/08/24 01:37:01;;;;;;;45.78;6.32;;;;;;;;;;5037409;28;20303;-60
2022/08/24 01:39:31;;;;;;;41.20;5.45;;;;;;;;;;5037512;28;20208;-60
2022/08/24 01:42:00;;;;;;;44.10;5.20;;;;;;;;;;5037558;28;20246;-60
2022/08/24 01:44:29;;;;;;;45.05;6.07;;;;;;;;;;5053913;28;20625;-60
2022/08/24 01:46:56;;;;;;;39.03;5.32;;;;;;;;;;5053845;28;20195;-59
2022/08/24 01:49:28;;;;;;;41.70;6.20;;;;;;;;;;5054244;28;20219;-60
2022/08/24 01:51:55;;;;;;;47.17;6.05;;;;;;;;;;5054958;28;20282;-60
2022/08/24 01:54:24;;;;;;;43.70;6.40;;;;;;;;;;5054526;28;20637;-60
2022/08/24 01:56:52;;;;;;;49.13;7.13;;;;;;;;;;5054531;28;20204;-61
2022/08/24 01:59:19;;;;;;;45.55;6.88;;;;;;;;;;5054758;28;20300;-59
2022/08/24 02:01:55;;;;;;;48.88;6.85;;;;;;;;;;5054169;28;20647;-60
2022/08/24 02:04:23;;;;;;;36.85;5.85;;;;;;;;;;5054657;28;20291;-60
2022/08/24 02:06:53;;;;;;;45.30;5.60;;;;;;;;;;5054670;28;20234;-60
2022/08/24 02:09:20;;;;;;;34.47;5.50;;;;;;;;;;5054142;28;20232;-60
2022/08/24 02:11:48;;;;;;;32.13;5.90;;;;;;;;;;5055461;28;20564;-60
2022/08/24 02:14:15;;;;;;;43.80;6.43;;;;;;;;;;5055428;28;20210;-60
2022/08/24 02:16:42;;;;;;;39.95;6.10;;;;;;;;;;5054100;28;20558;-60
2022/08/24 02:19:09;;;;;;;45.50;5.80;;;;;;;;;;5055034;28;20247;-60
2022/08/24 02:21:37;;;;;;;37.00;5.35;;;;;;;;;;5054524;28;20608;-60
2022/08/24 02:24:06;;;;;;;47.17;6.13;;;;;;;;;;5053975;28;20287;-60
2022/08/24 02:26:33;;;;;;;42.60;6.53;;;;;;;;;;5055042;28;20223;-59
2022/08/24 02:29:00;;;;;;;35.75;6.03;;;;;;;;;;5055548;28;20204;-60
2022/08/24 02:31:30;;;;;;;39.08;6.53;;;;;;;;;;5054445;28;20212;-60
2022/08/24 02:33:58;;;;;;;35.53;5.32;;;;;;;;;;5054626;28;20200;-60
2022/08/24 02:36:25;;;;;;;36.85;4.78;;;;;;;;;;5054079;28;20242;-60
2022/08/24 02:38:56;;;;;;;46.50;5.30;;;;;;;;;;5054206;28;20232;-60
2022/08/24 02:41:24;;;;;;;39.97;6.10;;;;;;;;;;5054054;28;20207;-60
2022/08/24 02:43:53;;;;;;;32.45;5.25;;;;;;;;;;5054280;28;20204;-60
2022/08/24 02:46:26;;;;;;;38.90;5.18;;;;;;;;;;5055061;28;20212;-60
2022/08/24 02:48:57;;;;;;;32.92;5.90;;;;;;;;;;5053944;28;20254;-60
2022/08/24 02:51:41;;;;;;;36.13;5.88;;;;;;;;;;5054472;28;20250;-60
2022/08/24 02:54:16;;;;;;;44.15;6.38;;;;;;;;;;5053675;28;20198;-60
2022/08/24 02:56:46;;;;;;;37.50;7.18;;;;;;;;;;5053470;28;20188;-60
2022/08/24 02:59:15;;;;;;;42.65;7.60;;;;;;;;;;5053692;28;20224;-60
2022/08/24 03:01:43;;;;;;;44.15;6.80;;;;;;;;;;5053302;28;20243;-60
2022/08/24 03:04:10;;;;;;;38.35;5.93;;;;;;;;;;5053726;28;20204;-60
2022/08/24 03:06:38;;;;;;;35.95;6.30;;;;;;;;;;5054363;28;20279;-60
2022/08/24 03:09:05;;;;;;;42.80;6.85;;;;;;;;;;5045927;28;20231;-60
2022/08/24 03:11:32;;;;;;;32.63;6.38;;;;;;;;;;5054021;28;20212;-60
2022/08/24 03:14:00;;;;;;;32.15;5.95;;;;;;;;;;5055013;28;20207;-61
2022/08/24 03:16:28;;;;;;;48.00;6.15;;;;;;;;;;5056389;28;20580;-60
2022/08/24 03:18:55;;;;;;;44.20;7.07;;;;;;;;;;5056697;28;20286;-60
2022/08/24 03:21:25;;;;;;;36.10;5.80;;;;;;;;;;5056124;28;20196;-60
2022/08/24 03:23:54;;;;;;;43.38;6.07;;;;;;;;;;5057121;28;20208;-60
2022/08/24 03:26:21;;;;;;;51.22;7.10;;;;;;;;;;5056929;28;20204;-61
2022/08/24 03:28:50;;;;;;;45.50;6.70;;;;;;;;;;5056872;28;20264;-60
2022/08/24 03:31:19;;;;;;;48.65;7.10;;;;;;;;;;5057269;28;20204;-60
2022/08/24 03:33:48;;;;;;;47.08;6.72;;;;;;;;;;5056965;28;20238;-60
2022/08/24 03:36:16;;;;;;;43.83;8.25;;;;;;;;;;5057733;28;20204;-60
2022/08/24 03:38:43;;;;;;;37.83;6.53;;;;;;;;;;5057581;28;20323;-60
2022/08/24 03:41:10;;;;;;;39.33;6.75;;;;;;;;;;5056622;28;20659;-60
2022/08/24 03:43:45;;;;;;;41.08;6.97;;;;;;;;;;5056841;28;20214;-61
2022/08/24 03:46:19;;;;;;;40.80;6.10;;;;;;;;;;5056797;28;20214;-60
2022/08/24 03:48:48;;;;;;;39.17;6.03;;;;;;;;;;5055637;28;20247;-61
2022/08/24 03:51:22;;;;;;;35.45;6.63;;;;;;;;;;5040292;28;20245;-60
2022/08/24 03:53:50;;;;;;;54.60;6.45;;;;;;;;;;5039947;28;20188;-60
2022/08/24 03:56:19;;;;;;;38.38;6.65;;;;;;;;;;5039744;28;20589;-60
2022/08/24 03:58:46;;;;;;;33.60;6.18;;;;;;;;;;5057014;28;20239;-62
2022/08/24 04:01:16;;;;;;;38.90;6.60;;;;;;;;;;5053754;28;20228;-61
2022/08/24 04:03:45;;;;;;;30.20;6.30;;;;;;;;;;5055632;28;20297;-60
2022/08/24 04:06:15;;;;;;;46.28;7.22;;;;;;;;;;5066075;28;20261;-63
2022/08/24 04:08:43;;;;;;;44.85;6.78;;;;;;;;;;5051685;28;20707;-60
2022/08/24 04:11:16;;;;;;;44.42;6.78;;;;;;;;;;5050969;28;20645;-63
2022/08/24 04:13:45;;;;;;;44.75;6.32;;;;;;;;;;5055370;28;20219;-61
2022/08/24 04:16:15;;;;;;;39.50;7.10;;;;;;;;;;5044998;28;20224;-61
2022/08/24 04:18:43;;;;;;;37.08;7.45;;;;;;;;;;5044070;28;20688;-61
2022/08/24 04:21:25;;;;;;;37.22;7.38;;;;;;;;;;5053886;28;20235;-61
2022/08/24 04:23:53;;;;;;;34.35;6.30;;;;;;;;;;5056226;28;20227;-60
2022/08/24 04:26:24;;;;;;;25.50;6.35;;;;;;;;;;5054458;28;20227;-61
2022/08/24 04:29:15;;;;;;;30.58;5.70;;;;;;;;;;5055454;28;20236;-58
2022/08/24 04:31:47;;;;;;;37.80;6.80;;;;;;;;;;5052027;28;20224;-58
2022/08/24 04:34:17;;;;;;;30.80;6.22;;;;;;;;;;5034748;28;20270;-57
2022/08/24 04:36:45;;;;;;;38.67;7.18;;;;;;;;;;5037138;28;20219;-59
2022/08/24 04:39:13;;;;;;;34.63;5.65;;;;;;;;;;5037635;28;20235;-58
2022/08/24 04:41:58;;;;;;;37.30;6.47;;;;;;;;;;5053056;28;20219;-60
2022/08/24 04:44:33;;;;;;;41.13;6.63;;;;;;;;;;5022978;28;20227;-57
2022/08/24 04:47:00;;;;;;;33.58;6.18;;;;;;;;;;5067885;28;20273;-58
2022/08/24 04:49:29;;;;;;;38.60;6.63;;;;;;;;;;5046307;28;20307;-58
2022/08/24 04:51:57;;;;;;;40.97;6.13;;;;;;;;;;5038559;28;20234;-57
2022/08/24 04:54:25;;;;;;;34.25;6.60;;;;;;;;;;5038321;28;20224;-57
2022/08/24 04:57:18;;;;;;;40.92;6.50;;;;;;;;;;5052072;28;20231;-58
2022/08/24 04:59:46;;;;;;;35.13;7.35;;;;;;;;;;5037367;28;20608;-58
2022/08/24 05:02:13;;;;;;;34.10;6.90;;;;;;;;;;5039132;28;20200;-58
2022/08/24 05:04:41;;;;;;;42.97;7.00;;;;;;;;;;5038795;28;20204;-58
2022/08/24 05:07:08;;;;;;;38.70;7.07;;;;;;;;;;5038757;28;20204;-58
2022/08/24 05:09:39;;;;;;;41.17;6.63;;;;;;;;;;5038697;28;20193;-58
2022/08/24 05:12:07;;;;;;;42.75;7.40;;;;;;;;;;5037914;28;20228;-58
2022/08/24 05:14:38;;;;;;;32.47;7.32;;;;;;;;;;5038642;28;20688;-59
2022/08/24 05:17:04;;;;;;;33.75;7.30;;;;;;;;;;5038310;28;20234;-60
2022/08/24 05:19:36;;;;;;;37.08;7.75;;;;;;;;;;5038312;28;20341;-60
2022/08/24 05:22:04;;;;;;;41.47;8.13;;;;;;;;;;5038144;28;20637;-60
2022/08/24 05:24:31;;;;;;;38.30;7.65;;;;;;;;;;5038125;28;20231;-60
2022/08/24 05:26:59;;;;;;;38.60;7.47;;;;;;;;;;5038440;28;20204;-60
2022/08/24 05:29:27;;;;;;;29.67;6.93;;;;;;;;;;5038043;28;20204;-61
2022/08/24 05:31:54;;;;;;;33.00;6.63;;;;;;;;;;5038274;28;20200;-60
2022/08/24 05:34:23;;;;;;;33.92;7.55;;;;;;;;;;5038003;28;20215;-60
2022/08/24 05:36:50;;;;;;;40.22;7.90;;;;;;;;;;5036717;28;20192;-58
2022/08/24 05:39:43;;;;;;;50.38;7.43;;;;;;;;;;5046558;28;20220;-61
2022/08/24 05:42:12;;;;;;;37.00;8.40;;;;;;;;;;5055462;28;20298;-59
2022/08/24 05:44:45;;;;;;;40.28;7.40;;;;;;;;;;5037670;28;20659;-59
2022/08/24 05:47:14;;;;;;;36.53;7.45;;;;;;;;;;5037873;28;20258;-59
2022/08/24 05:49:42;;;;;;;42.13;7.15;;;;;;;;;;5037552;28;20240;-60
2022/08/24 05:52:09;;;;;;;46.72;7.65;;;;;;;;;;5036781;28;20200;-60
2022/08/24 05:54:37;;;;;;;42.83;8.88;;;;;;;;;;5035349;28;20730;-59
2022/08/24 05:57:05;;;;;;;36.95;7.63;;;;;;;;;;5053491;28;20212;-61
2022/08/24 05:59:50;;;;;;;37.75;7.45;;;;;;;;;;5036164;28;20216;-60
2022/08/24 06:02:18;;;;;;;59.05;8.82;;;;;;;;;;5054048;28;20204;-60
2022/08/24 06:04:45;;;;;;;39.38;7.25;;;;;;;;;;5054040;28;20257;-60
2022/08/24 06:07:14;;;;;;;35.50;7.10;;;;;;;;;;5037020;28;20219;-59
2022/08/24 06:09:47;;;;;;;44.75;8.55;;;;;;;;;;5037243;28;20201;-59
2022/08/24 06:12:15;;;;;;;48.40;7.70;;;;;;;;;;5037438;28;20203;-60
2022/08/24 06:14:46;;;;;;;42.00;7.32;;;;;;;;;;5036017;28;20231;-61
2022/08/24 06:17:17;;;;;;;37.63;6.82;;;;;;;;;;5037613;28;20184;-59
2022/08/24 06:19:45;;;;;;;45.15;7.90;;;;;;;;;;5036398;28;20224;-61
2022/08/24 06:22:12;;;;;;;41.50;7.45;;;;;;;;;;5053038;28;20264;-60
2022/08/24 06:27:27;;;;;;;28.58;6.85;;;;;;;;;;5035547;28;20200;-61
2022/08/24 06:29:59;;;;;;;38.47;7.47;;;;;;;;;;5035492;28;20235;-61
2022/08/24 06:32:46;;;;;;;50.60;7.65;;;;;;;;;;5053128;28;20257;-60
2022/08/24 06:35:52;;;;;;;31.40;6.57;;;;;;;;;;5012729;28;20212;-59
2022/08/24 06:38:19;;;;;;;40.33;7.35;;;;;;;;;;4995029;28;20236;-60
2022/08/24 06:40:49;;;;;;;44.42;7.45;;;;;;;;;;4996191;28;20762;-60
2022/08/24 06:43:18;;;;;;;41.08;7.68;;;;;;;;;;4995908;28;20220;-60
2022/08/24 06:45:50;;;;;;;52.17;8.10;;;;;;;;;;4996438;28;20196;-61
2022/08/24 06:48:21;;;;;;;48.10;7.28;;;;;;;;;;5012819;28;20248;-60
2022/08/24 06:50:50;;;;;;;40.15;8.10;;;;;;;;;;5016724;28;20308;-60
2022/08/24 06:53:18;;;;;;;45.65;8.25;;;;;;;;;;5017176;28;20197;-60
2022/08/24 06:55:56;;;;;;;47.85;9.25;;;;;;;;;;5017170;28;20208;-59
2022/08/24 06:58:25;;;;;;;53.92;8.23;;;;;;;;;;5017098;28;20197;-59
2022/08/24 07:00:56;;;;;;;47.17;8.50;;;;;;;;;;5016969;28;20536;-59
2022/08/24 07:03:24;;;;;;;53.45;8.35;;;;;;;;;;5016992;28;20205;-60
2022/08/24 07:06:03;;;;;;;38.75;7.70;;;;;;;;;;5022428;28;20200;-60
2022/08/24 07:08:41;;;;;;;52.35;8.55;;;;;;;;;;5021038;28;20224;-60
2022/08/24 07:11:13;;;;;;;39.30;7.72;;;;;;;;;;5038115;28;20189;-60
2022/08/24 07:13:41;;;;;;;32.85;7.20;;;;;;;;;;5037740;28;20202;-60
2022/08/24 07:16:11;;;;;;;48.03;7.95;;;;;;;;;;5038244;28;20263;-60
2022/08/24 07:18:39;;;;;;;36.78;7.13;;;;;;;;;;5037327;28;20653;-60
2022/08/24 07:21:08;;;;;;;55.58;8.52;;;;;;;;;;5038542;28;20201;-60
2022/08/24 07:23:47;;;;;;;37.60;7.82;;;;;;;;;;5020861;28;20271;-59
2022/08/24 07:26:21;;;;;;;45.42;8.25;;;;;;;;;;5037468;28;20278;-59
2022/08/24 07:28:59;;;;;;;49.50;7.55;;;;;;;;;;5037576;28;20230;-59
2022/08/24 07:31:33;;;;;;;52.47;7.65;;;;;;;;;;5040024;28;20211;-59
2022/08/24 07:34:13;;;;;;;50.35;8.32;;;;;;;;;;5040288;28;20203;-59
2022/08/24 07:36:41;;;;;;;38.58;7.45;;;;;;;;;;5040088;28;20204;-60
2022/08/24 07:39:11;;;;;;;46.72;8.45;;;;;;;;;;5040128;28;20278;-59
2022/08/24 07:41:42;;;;;;;49.67;8.10;;;;;;;;;;5040584;28;20277;-59
2022/08/24 07:44:30;;;;;;;39.55;6.85;;;;;;;;;;5040726;28;20208;-59
2022/08/24 07:46:57;;;;;;;39.83;7.50;;;;;;;;;;5039859;28;20207;-60
2022/08/24 07:49:41;;;;;;;49.28;7.95;;;;;;;;;;5040140;28;20202;-60
2022/08/24 07:52:09;;;;;;;50.60;7.57;;;;;;;;;;5040286;28;20199;-59
2022/08/24 07:54:36;;;;;;;54.72;7.38;;;;;;;;;;5057692;28;20200;-60
2022/08/24 07:57:05;;;;;;;46.35;7.03;;;;;;;;;;5057712;28;20238;-59
2022/08/24 07:59:34;;;;;;;36.15;7.38;;;;;;;;;;5039262;28;20222;-60
2022/08/24 08:02:02;;;;;;;41.20;7.32;;;;;;;;;;5039715;28;20287;-59
2022/08/24 08:04:30;;;;;;;62.05;7.43;;;;;;;;;;5039952;28;20204;-59
2022/08/24 08:07:00;;;;;;;34.33;8.02;;;;;;;;;;5039906;28;20318;-59
2022/08/24 08:09:30;;;;;;;54.00;9.25;;;;;;;;;;5040247;28;20196;-59
2022/08/24 08:11:58;;;;;;;46.65;7.40;;;;;;;;;;5039722;28;20207;-60
2022/08/24 08:14:25;;;;;;;45.70;7.72;;;;;;;;;;5039405;28;20204;-59
2022/08/24 08:16:53;;;;;;;39.80;6.75;;;;;;;;;;5039656;28;20204;-59
2022/08/24 08:19:21;;;;;;;42.50;8.25;;;;;;;;;;5019616;28;20224;-61
2022/08/24 08:24:51;;;;;;;46.65;8.70;;;;;;;;;;5036102;28;20212;-59
2022/08/24 08:27:20;;;;;;;32.55;7.65;;;;;;;;;;5035622;28;20204;-60
2022/08/24 08:29:47;;;;;;;35.65;6.45;;;;;;;;;;5036922;28;20204;-59
2022/08/24 08:32:16;;;;;;;41.72;6.53;;;;;;;;;;5036881;28;20228;-59
2022/08/24 08:34:46;;;;;;;56.47;7.85;;;;;;;;;;5035501;28;20251;-59
2022/08/24 08:37:14;;;;;;;36.85;6.95;;;;;;;;;;5036606;28;20195;-59
2022/08/24 08:39:41;;;;;;;45.67;7.03;;;;;;;;;;5035602;28;20232;-59
2022/08/24 08:42:28;;;;;;;58.40;7.47;;;;;;;;;;5035579;28;20543;-59
2022/08/24 08:45:21;;;;;;;40.72;7.88;;;;;;;;;;5019475;28;20195;-59
2022/08/24 08:48:25;;;;;;;53.63;8.10;;;;;;;;;;5018957;28;20399;-59
2022/08/24 08:51:20;;;;;;;62.85;7.22;;;;;;;;;;5019563;28;20207;-59
2022/08/24 08:54:11;;;;;;;53.17;7.78;;;;;;;;;;5036725;28;20563;-58
2022/08/24 08:56:44;;;;;;;54.78;7.30;;;;;;;;;;5035533;28;20232;-58
2022/08/24 08:59:47;;;;;;;59.22;6.82;;;;;;;;;;5035346;28;20667;-60
2022/08/24 09:02:21;;;;;;;56.50;8.77;;;;;;;;;;5019065;28;20641;-59
2022/08/24 09:05:40;;;;;;;57.58;7.93;;;;;;;;;;5019201;28;20185;-59
2022/08/24 09:08:21;;;;;;;59.28;7.85;;;;;;;;;;5008935;28;20649;-59
2022/08/24 09:10:53;;;;;;;56.78;7.68;;;;;;;;;;5035122;28;20200;-59
2022/08/24 09:13:51;;;;;;;55.67;8.02;;;;;;;;;;5034902;28;20271;-61
2022/08/24 09:17:04;;;;;;;60.88;7.45;;;;;;;;;;5034875;28;20653;-59
2022/08/24 09:20:06;;;;;;;47.25;6.68;;;;;;;;;;5018827;28;20307;-60
2022/08/24 09:22:40;;;;;;;53.22;7.90;;;;;;;;;;5035555;28;20197;-59
2022/08/24 09:25:19;;;;;;;52.95;8.45;;;;;;;;;;5053215;28;20200;-59
2022/08/24 09:28:27;;;;;;;67.75;9.23;;;;;;;;;;5038637;28;20271;-59
2022/08/24 09:31:18;;;;;;;61.95;7.93;;;;;;;;;;5054803;28;20195;-59
2022/08/24 09:33:54;;;;;;;51.78;7.32;;;;;;;;;;5055788;28;20245;-59
2022/08/24 09:36:59;;;;;;;49.90;7.13;;;;;;;;;;5055797;28;20278;-59
2022/08/24 09:39:47;;;;;;;59.90;7.65;;;;;;;;;;5055245;28;20223;-60
2022/08/24 09:42:38;;;;;;;47.22;7.43;;;;;;;;;;5055767;28;20279;-59
2022/08/24 09:45:33;;;;;;;39.22;6.70;;;;;;;;;;5055895;28;20200;-59
2022/08/24 09:48:42;;;;;;;45.13;7.45;;;;;;;;;;5055346;28;20301;-59
2022/08/24 09:51:27;;;;;;;64.78;8.30;;;;;;;;;;4993963;28;20210;-59
2022/08/24 09:54:25;;;;;;;52.80;7.13;;;;;;;;;;4994285;28;20205;-59
2022/08/24 09:56:58;;;;;;;45.10;6.90;;;;;;;;;;4993960;28;20581;-59
2022/08/24 10:00:00;;;;;;;39.00;6.30;;;;;;;;;;4994237;28;20252;-59
2022/08/24 10:02:47;;;;;;;47.25;6.75;;;;;;;;;;4993765;28;20225;-60
2022/08/24 10:05:52;;;;;;;41.78;7.25;;;;;;;;;;4994080;28;20197;-59
2022/08/24 10:08:40;;;;;;;51.33;7.57;;;;;;;;;;4994092;28;20210;-59
2022/08/24 10:11:32;;;;;;;39.65;5.65;;;;;;;;;;4993910;28;20198;-59
2022/08/24 10:14:23;;;;;;;43.92;6.72;;;;;;;;;;4993992;28;20226;-59
2022/08/24 10:17:02;;;;;;;52.60;7.30;;;;;;;;;;4993722;28;20233;-59
2022/08/24 10:19:50;;;;;;;61.03;7.15;;;;;;;;;;4994324;28;20280;-59
2022/08/24 10:22:36;;;;;;;34.28;5.90;;;;;;;;;;4993763;28;20217;-59
2022/08/24 10:25:37;;;;;;;39.45;6.68;;;;;;;;;;4977888;28;20202;-59
2022/08/24 10:28:19;;;;;;;46.80;6.32;;;;;;;;;;5025753;28;20210;-60
2022/08/24 10:30:52;;;;;;;132.65;10.65;;;;;;;;;;5037648;28;20196;-59
2022/08/24 10:33:24;;;;;;;74.90;8.57;;;;;;;;;;5054623;28;20522;-60
2022/08/24 10:36:20;;;;;;;58.75;7.57;;;;;;;;;;5054744;28;20196;-59
2022/08/24 10:45:49;;;;;;;37.50;5.63;;;;;;;;;;5054958;28;20188;-60
2022/08/24 10:48:29;;;;;;;37.58;6.20;;;;;;;;;;5033828;28;20264;-60
2022/08/24 10:51:12;;;;;;;30.33;5.45;;;;;;;;;;5034864;28;20192;-60
2022/08/24 10:53:39;;;;;;;39.97;5.57;;;;;;;;;;5034532;28;20207;-59
2022/08/24 10:56:15;;;;;;;43.90;6.15;;;;;;;;;;5034638;28;20235;-59
2022/08/24 10:58:57;;;;;;;32.53;5.72;;;;;;;;;;5034638;28;20188;-59
2022/08/24 11:01:32;;;;;;;43.00;5.75;;;;;;;;;;5034830;28;20237;-60
2022/08/24 11:04:07;;;;;;;40.35;6.35;;;;;;;;;;5041573;28;20206;-58
2022/08/24 11:06:41;;;;;;;34.25;4.82;;;;;;;;;;5053908;28;20210;-60
2022/08/24 11:09:15;;;;;;;42.20;5.32;;;;;;;;;;5054344;28;20188;-60
2022/08/24 11:11:48;;;;;;;36.90;6.32;;;;;;;;;;5054590;28;20192;-59
2022/08/24 11:14:15;;;;;;;40.45;5.10;;;;;;;;;;5037232;28;20250;-59
2022/08/24 11:16:44;;;;;;;31.42;5.10;;;;;;;;;;5054072;28;20636;-60
2022/08/24 11:19:14;;;;;;;43.50;6.00;;;;;;;;;;5053356;28;20578;-59
2022/08/24 11:21:46;;;;;;;48.10;5.82;;;;;;;;;;5053820;28;20235;-58
2022/08/24 11:24:13;;;;;;;43.17;6.00;;;;;;;;;;5054503;28;20202;-59
2022/08/24 11:26:53;;;;;;;43.00;6.20;;;;;;;;;;5053791;28;20204;-59
2022/08/24 11:29:26;;;;;;;33.03;5.68;;;;;;;;;;5036945;28;20195;-59
2022/08/24 11:31:53;;;;;;;35.83;6.32;;;;;;;;;;5054464;28;20184;-59
2022/08/24 11:34:38;;;;;;;43.63;6.55;;;;;;;;;;5053937;28;20640;-59
2022/08/24 11:37:13;;;;;;;48.20;6.45;;;;;;;;;;5058160;28;20188;-59
2022/08/24 11:39:40;;;;;;;54.40;7.75;;;;;;;;;;5058009;28;20227;-59
2022/08/24 11:42:18;;;;;;;49.35;6.15;;;;;;;;;;5056958;28;20200;-61
2022/08/24 11:45:02;;;;;;;46.45;6.47;;;;;;;;;;5041260;28;20296;-59
2022/08/24 11:47:48;;;;;;;46.00;6.00;;;;;;;;;;5040271;28;20525;-59
2022/08/24 11:50:30;;;;;;;50.90;7.00;;;;;;;;;;5057665;28;20302;-60
2022/08/24 11:53:08;;;;;;;48.03;6.13;;;;;;;;;;5040526;28;20188;-60
2022/08/24 11:56:05;;;;;;;32.85;6.03;;;;;;;;;;5057750;28;20210;-59
2022/08/24 11:58:59;;;;;;;35.83;5.90;;;;;;;;;;5039161;28;20195;-60
2022/08/24 12:01:28;;;;;;;51.88;6.75;;;;;;;;;;5054456;28;20678;-59
2022/08/24 12:04:08;;;;;;;46.08;6.25;;;;;;;;;;5039620;28;20199;-59
2022/08/24 12:06:42;;;;;;;56.20;7.47;;;;;;;;;;5040132;28;20242;-60
2022/08/24 12:09:14;;;;;;;45.22;5.95;;;;;;;;;;5039934;28;20191;-59
2022/08/24 12:11:41;;;;;;;48.28;6.60;;;;;;;;;;5039551;28;20223;-60
2022/08/24 12:14:18;;;;;;;46.08;8.48;;;;;;;;;;5056808;28;20215;-59
2022/08/24 12:17:26;;;;;;;41.42;5.80;;;;;;;;;;5056935;28;20690;-59
2022/08/24 12:20:00;;;;;;;43.50;5.75;;;;;;;;;;5039720;28;20203;-59
2022/08/24 12:22:28;;;;;;;45.65;5.80;;;;;;;;;;5057083;28;20262;-59
2022/08/24 12:24:58;;;;;;;48.10;6.30;;;;;;;;;;5039480;28;20208;-59
2022/08/24 12:27:28;;;;;;;49.38;6.43;;;;;;;;;;5056920;28;20207;-59
2022/08/24 12:29:59;;;;;;;31.83;5.90;;;;;;;;;;5057078;28;20206;-59
2022/08/24 12:32:49;;;;;;;38.58;5.95;;;;;;;;;;5056997;28;20298;-59
2022/08/24 12:35:27;;;;;;;46.38;5.68;;;;;;;;;;5057007;28;20211;-59
2022/08/24 12:38:20;;;;;;;42.45;6.47;;;;;;;;;;5056632;28;20287;-59
2022/08/24 12:40:48;;;;;;;39.80;6.88;;;;;;;;;;5039131;28;20560;-60
2022/08/24 12:43:41;;;;;;;55.10;6.70;;;;;;;;;;5057090;28;20247;-59
2022/08/24 12:46:10;;;;;;;48.78;6.18;;;;;;;;;;5047392;28;20208;-59
2022/08/24 12:48:44;;;;;;;43.90;5.90;;;;;;;;;;5039673;28;20322;-59
2022/08/24 12:51:33;;;;;;;58.20;6.68;;;;;;;;;;5068321;28;20610;-59
2022/08/24 12:54:22;;;;;;;38.92;5.68;;;;;;;;;;5038712;28;20223;-59
2022/08/24 12:57:29;;;;;;;41.83;6.25;;;;;;;;;;5055886;28;20193;-59
2022/08/24 13:00:05;;;;;;;56.20;6.95;;;;;;;;;;5036420;28;20185;-59
2022/08/24 13:02:39;;;;;;;52.17;7.00;;;;;;;;;;5050994;28;20203;-59
2022/08/24 13:05:17;;;;;;;43.55;6.63;;;;;;;;;;5055617;28;20199;-59
2022/08/24 13:07:51;;;;;;;51.50;7.32;;;;;;;;;;5054605;28;20238;-60
2022/08/24 13:10:23;;;;;;;56.15;6.82;;;;;;;;;;5074187;28;20253;-59
2022/08/24 13:12:55;;;;;;;45.83;6.53;;;;;;;;;;5064964;28;20703;-58
2022/08/24 13:15:22;;;;;;;44.00;6.97;;;;;;;;;;5071543;28;20216;-59
2022/08/24 13:17:50;;;;;;;40.05;6.60;;;;;;;;;;5037798;28;20220;-59
2022/08/24 13:20:25;;;;;;;50.03;7.15;;;;;;;;;;5054663;28;20671;-62
2022/08/24 13:23:10;;;;;;;38.85;5.95;;;;;;;;;;5069961;28;20701;-59
2022/08/24 13:25:47;;;;;;;56.30;6.82;;;;;;;;;;5070865;28;20224;-59
2022/08/24 13:28:20;;;;;;;42.17;6.03;;;;;;;;;;5054867;28;20251;-60
2022/08/24 13:31:05;;;;;;;45.28;5.78;;;;;;;;;;5055028;28;20227;-59
2022/08/24 13:33:42;;;;;;;55.80;6.07;;;;;;;;;;5054754;28;20652;-60
2022/08/24 13:36:41;;;;;;;46.03;6.18;;;;;;;;;;5054381;28;20242;-60
2022/08/24 13:39:17;;;;;;;46.83;5.82;;;;;;;;;;5026323;28;20235;-59
2022/08/24 13:42:01;;;;;;;50.42;6.38;;;;;;;;;;5054918;28;20323;-59
2022/08/24 13:45:05;;;;;;;45.70;6.13;;;;;;;;;;5036375;28;20219;-59
2022/08/24 13:48:05;;;;;;;42.72;6.18;;;;;;;;;;5051777;28;20235;-59
2022/08/24 13:50:58;;;;;;;53.25;6.80;;;;;;;;;;5048352;28;20232;-59
2022/08/24 13:53:56;;;;;;;54.15;6.38;;;;;;;;;;5054489;28;20240;-60
2022/08/24 13:56:23;;;;;;;48.10;5.95;;;;;;;;;;5054249;28;20299;-60
2022/08/24 13:59:32;;;;;;;46.78;6.75;;;;;;;;;;5053956;28;20219;-64
2022/08/24 14:02:19;;;;;;;42.50;6.28;;;;;;;;;;5037078;28;20303;-64
2022/08/24 14:04:52;;;;;;;58.47;6.70;;;;;;;;;;5054468;28;20532;-64
2022/08/24 14:07:24;;;;;;;54.95;6.10;;;;;;;;;;5053682;28;20283;-64
2022/08/24 14:10:08;;;;;;;47.35;5.88;;;;;;;;;;5035805;28;20228;-65
2022/08/24 14:12:44;;;;;;;48.05;6.05;;;;;;;;;;5035041;28;20676;-64
2022/08/24 14:15:31;;;;;;;49.53;5.70;;;;;;;;;;5036877;28;20263;-65
2022/08/24 14:18:10;;;;;;;42.42;5.57;;;;;;;;;;5054179;28;20523;-65
2022/08/24 14:20:56;;;;;;;46.55;6.38;;;;;;;;;;5036289;28;20239;-65
2022/08/24 14:23:32;;;;;;;54.75;6.35;;;;;;;;;;5053640;28;20586;-64
2022/08/24 14:26:35;;;;;;;40.13;5.30;;;;;;;;;;5053642;28;20232;-65
2022/08/24 14:29:14;;;;;;;44.05;5.82;;;;;;;;;;5048913;28;20218;-65
2022/08/24 14:31:53;;;;;;;45.20;6.35;;;;;;;;;;5048012;28;20269;-66
2022/08/24 14:34:34;;;;;;;50.58;5.85;;;;;;;;;;5044486;28;20262;-65
2022/08/24 14:37:11;;;;;;;43.00;5.68;;;;;;;;;;5042690;28;20550;-65
2022/08/24 14:39:53;;;;;;;37.30;4.88;;;;;;;;;;5049921;28;20311;-66
2022/08/24 14:42:31;;;;;;;42.58;5.72;;;;;;;;;;5034900;28;20293;-66
2022/08/24 17:50:41;;;;;;;25.95;4.65;;;;;;;;;;4813881;22;20234;-50
2022/08/24 17:53:08;;;;;;;32.15;5.78;;;;;;;;;;5051000;28;20215;-54
2022/08/24 17:55:36;;;;;;;39.90;5.25;;;;;;;;;;5052033;28;20219;-47
2022/08/24 17:58:03;;;;;;;32.15;5.95;;;;;;;;;;5053467;28;20207;-46
2022/08/24 18:00:30;;;;;;;29.58;6.03;;;;;;;;;;5036037;28;20222;-45
2022/08/24 18:02:57;;;;;;;24.52;4.72;;;;;;;;;;5054069;28;20231;-46
2022/08/24 18:05:24;;;;;;;25.52;5.07;;;;;;;;;;5053546;28;20771;-47
2022/08/24 18:07:53;;;;;;;21.88;5.03;;;;;;;;;;5053385;28;20216;-48
2022/08/24 18:10:26;;;;;;;24.23;4.97;;;;;;;;;;5036773;28;20224;-50
2022/08/24 18:12:56;;;;;;;28.63;5.00;;;;;;;;;;5051069;28;20223;-44
2022/08/24 18:15:26;;;;;;;40.70;5.30;;;;;;;;;;5053423;28;20219;-51
2022/08/24 18:18:07;;;;;;;31.73;4.70;;;;;;;;;;5053199;28;20224;-48
2022/08/24 18:20:38;;;;;;;45.40;5.25;;;;;;;;;;5052789;28;20285;-49
2022/08/24 18:23:05;;;;;;;31.38;5.65;;;;;;;;;;5033497;28;20228;-51
2022/08/24 18:25:47;;;;;;;52.25;6.00;;;;;;;;;;5053101;28;20224;-52
2022/08/24 18:28:16;;;;;;;33.40;5.45;;;;;;;;;;5052364;28;20250;-52
2022/08/24 18:30:44;;;;;;;42.92;5.82;;;;;;;;;;5052778;28;20219;-51
2022/08/24 18:33:11;;;;;;;28.90;4.68;;;;;;;;;;5035341;28;20220;-49
2022/08/24 18:35:38;;;;;;;30.88;4.80;;;;;;;;;;5052990;28;20235;-53
2022/08/24 18:38:05;;;;;;;30.92;5.38;;;;;;;;;;5052650;28;20310;-49